Time;durP1;ratioP1;P1;durP2;ratioP2;P2;SDS_P1;SDS_P2;PMS_P1;PMS_P2;Temp;Humidity;BMP_temperature;BMP_pressure;BME280_temperature;BME280_humidity;BME280_pressure;Samples;Min_cycle;Max_cycle;Signal;HPM_P1;HPM_P2
2023/03/22 05:30:23;;;;;;;10.02;1.65;;;13.20;80.00;;;;;;5999607;23;20017;-86
2023/03/22 05:32:49;;;;;;;8.07;1.65;;;13.20;79.70;;;;;;4972570;28;20485;-86
2023/03/22 05:35:14;;;;;;;14.35;1.38;;;13.20;79.50;;;;;;4961140;28;20051;-86
2023/03/22 05:37:40;;;;;;;10.95;1.75;;;13.20;79.60;;;;;;4960770;28;20038;-86
2023/03/22 05:40:09;;;;;;;8.55;1.90;;;13.20;79.80;;;;;;4973182;28;20110;-86
2023/03/22 05:42:35;;;;;;;15.27;2.63;;;13.20;79.80;;;;;;4970905;28;20086;-86
2023/03/22 05:45:01;;;;;;;8.23;1.38;;;13.20;79.90;;;;;;4976563;28;20643;-86
2023/03/22 05:47:27;;;;;;;10.38;2.67;;;13.20;79.80;;;;;;4973107;28;20074;-86
2023/03/22 05:49:52;;;;;;;10.32;1.52;;;13.20;79.80;;;;;;4975929;28;20169;-85
2023/03/22 05:52:18;;;;;;;13.43;2.65;;;13.20;79.90;;;;;;4976613;28;20409;-91
2023/03/22 05:54:44;;;;;;;7.70;1.48;;;13.20;79.80;;;;;;4983805;28;20041;-80
2023/03/22 05:57:10;;;;;;;10.02;1.60;;;13.20;79.70;;;;;;4972849;28;20038;-84
2023/03/22 05:59:35;;;;;;;11.13;2.35;;;13.30;79.50;;;;;;4967472;28;20101;-81
2023/03/22 06:02:01;;;;;;;6.22;1.42;;;13.30;79.30;;;;;;4962703;28;20029;-81
2023/03/22 06:04:27;;;;;;;9.05;1.20;;;13.30;79.30;;;;;;4975648;28;20520;-81
2023/03/22 06:06:52;;;;;;;6.60;2.25;;;13.30;79.10;;;;;;4975347;28;20110;-83
2023/03/22 06:09:18;;;;;;;8.45;1.30;;;13.30;79.10;;;;;;4975064;28;20062;-87
2023/03/22 06:11:44;;;;;;;8.57;1.45;;;13.30;79.20;;;;;;4968543;28;20034;-90
2023/03/22 06:14:10;;;;;;;9.07;2.00;;;13.30;79.30;;;;;;4979248;28;20035;-87
2023/03/22 06:16:35;;;;;;;8.23;1.58;;;13.30;79.10;;;;;;4973194;28;20426;-77
2023/03/22 06:19:01;;;;;;;8.13;1.23;;;13.30;79.40;;;;;;4981809;28;20074;-83
2023/03/22 06:21:26;;;;;;;6.25;1.33;;;13.30;79.50;;;;;;4972585;28;20058;-86
2023/03/22 06:23:52;;;;;;;12.50;1.58;;;13.30;79.80;;;;;;4975934;28;20105;-83
2023/03/22 06:26:18;;;;;;;10.77;2.17;;;13.20;79.80;;;;;;4975393;28;20564;-82
2023/03/22 06:28:43;;;;;;;11.18;1.20;;;13.20;80.00;;;;;;4955782;28;20042;-83
2023/03/22 06:31:09;;;;;;;8.13;1.50;;;13.20;80.00;;;;;;4975845;28;20066;-82
2023/03/22 06:33:35;;;;;;;9.88;1.40;;;13.20;79.80;;;;;;4984192;28;20041;-82
2023/03/22 06:36:02;;;;;;;7.82;1.52;;;13.20;79.90;;;;;;4978668;28;20035;-82
2023/03/22 06:38:28;;;;;;;3.67;1.23;;;13.20;79.90;;;;;;4979336;28;20118;-83
2023/03/22 06:40:54;;;;;;;5.70;1.60;;;13.20;80.10;;;;;;4965903;28;20022;-82
2023/03/22 06:43:20;;;;;;;6.25;1.73;;;13.20;80.10;;;;;;4979302;28;20038;-79
2023/03/22 06:45:46;;;;;;;5.68;1.73;;;13.20;80.10;;;;;;4979861;28;20171;-78
2023/03/22 06:48:14;;;;;;;5.57;1.25;;;13.20;80.20;;;;;;4973058;28;20142;-83
2023/03/22 06:50:40;;;;;;;9.25;1.75;;;13.20;80.40;;;;;;4973001;28;20030;-84
2023/03/22 06:53:06;;;;;;;10.43;1.42;;;13.10;80.50;;;;;;4968530;28;20034;-83
2023/03/22 06:55:33;;;;;;;7.47;1.73;;;13.20;80.60;;;;;;4977230;28;20104;-83
2023/03/22 06:58:02;;;;;;;9.63;1.70;;;13.20;80.50;;;;;;4953557;28;20031;-83
2023/03/22 07:00:29;;;;;;;7.82;1.10;;;13.10;80.40;;;;;;4978546;28;20034;-82
2023/03/22 07:02:54;;;;;;;8.40;1.35;;;13.20;80.40;;;;;;4990987;28;20152;-81
2023/03/22 07:05:20;;;;;;;11.30;1.48;;;13.20;80.50;;;;;;4974714;28;20019;-79
2023/03/22 07:07:46;;;;;;;7.07;1.65;;;13.20;80.20;;;;;;4989070;28;20093;-81
2023/03/22 07:10:12;;;;;;;9.82;1.83;;;13.30;80.10;;;;;;4970125;28;20027;-81
2023/03/22 07:12:38;;;;;;;2.45;0.90;;;13.20;80.10;;;;;;4959421;28;20034;-81
2023/03/22 07:15:04;;;;;;;6.13;1.48;;;13.20;80.00;;;;;;4977058;28;20030;-82
2023/03/22 07:17:29;;;;;;;5.20;1.35;;;13.30;80.00;;;;;;4977083;28;20027;-80
2023/03/22 07:19:55;;;;;;;7.32;1.52;;;13.30;79.90;;;;;;4977006;28;20033;-80
2023/03/22 07:22:21;;;;;;;7.88;1.17;;;13.30;80.00;;;;;;4968750;28;20407;-85
2023/03/22 07:24:48;;;;;;;5.50;0.88;;;13.30;80.00;;;;;;4973107;28;20086;-85
2023/03/22 07:27:13;;;;;;;6.22;1.33;;;13.30;79.80;;;;;;4988115;28;20034;-85
2023/03/22 07:29:40;;;;;;;4.90;1.42;;;13.30;79.70;;;;;;4978477;28;20023;-83
2023/03/22 07:32:05;;;;;;;5.50;1.42;;;13.30;79.70;;;;;;4974612;28;20059;-83
2023/03/22 07:34:31;;;;;;;2.78;1.10;;;13.30;79.50;;;;;;4978134;28;20045;-83
2023/03/22 07:36:57;;;;;;;3.25;1.00;;;13.30;79.10;;;;;;4991351;28;20034;-83
2023/03/22 07:39:23;;;;;;;4.55;1.35;;;13.30;78.60;;;;;;4967615;28;20126;-83
2023/03/22 07:41:50;;;;;;;4.45;1.05;;;13.30;78.10;;;;;;4977785;28;20065;-83
2023/03/22 07:44:17;;;;;;;2.83;0.88;;;13.40;77.80;;;;;;4975906;28;20023;-83
2023/03/22 07:46:43;;;;;;;8.93;1.40;;;13.40;77.60;;;;;;4970674;28;20035;-82
2023/03/22 07:49:08;;;;;;;2.80;0.88;;;13.40;77.50;;;;;;4967165;28;20041;-82
2023/03/22 07:51:34;;;;;;;3.25;1.50;;;13.40;77.40;;;;;;4993696;28;20034;-82
2023/03/22 07:54:01;;;;;;;2.03;0.85;;;13.40;77.50;;;;;;4978191;28;20085;-82
2023/03/22 07:56:26;;;;;;;8.07;1.40;;;13.40;77.70;;;;;;4989977;28;20037;-83
2023/03/22 07:58:52;;;;;;;5.38;1.58;;;13.40;78.00;;;;;;4978068;28;20030;-82
2023/03/22 08:01:17;;;;;;;4.55;1.13;;;13.30;77.60;;;;;;4978087;28;20478;-83
2023/03/22 08:03:43;;;;;;;8.73;1.55;;;13.40;77.60;;;;;;4978041;28;20054;-82
2023/03/22 08:06:11;;;;;;;7.32;1.50;;;13.40;77.60;;;;;;4972617;28;20023;-83
2023/03/22 08:08:37;;;;;;;9.73;1.13;;;13.50;77.70;;;;;;4977666;28;20085;-83
2023/03/22 08:11:04;;;;;;;4.50;1.08;;;13.50;77.50;;;;;;4961447;28;20019;-83
2023/03/22 08:13:30;;;;;;;5.65;0.88;;;13.50;77.60;;;;;;4971492;28;20023;-83
2023/03/22 08:15:56;;;;;;;5.65;1.67;;;13.40;77.80;;;;;;4971891;28;20466;-83
2023/03/22 08:18:22;;;;;;;3.22;1.25;;;13.30;78.10;;;;;;4978199;28;20035;-83
2023/03/22 08:20:55;;;;;;;9.25;1.48;;;13.40;78.20;;;;;;4992637;28;20027;-82
2023/03/22 08:23:22;;;;;;;4.88;1.33;;;13.40;78.40;;;;;;4992679;28;20496;-84
2023/03/22 08:25:47;;;;;;;2.83;0.77;;;13.50;78.20;;;;;;4987321;28;20026;-83
2023/03/22 08:28:14;;;;;;;2.10;0.88;;;13.50;78.20;;;;;;4973086;28;20038;-82
2023/03/22 08:30:41;;;;;;;9.80;1.60;;;13.60;78.10;;;;;;4977548;28;20868;-82
2023/03/22 08:33:07;;;;;;;8.02;1.70;;;13.70;77.80;;;;;;4973619;28;20113;-82
2023/03/22 08:35:33;;;;;;;2.30;0.80;;;13.70;77.60;;;;;;4968517;28;20061;-83
2023/03/22 08:38:00;;;;;;;4.03;1.05;;;13.70;77.40;;;;;;4977338;28;20042;-84
2023/03/22 08:40:25;;;;;;;6.38;1.25;;;13.80;77.10;;;;;;4967439;28;20027;-83
2023/03/22 08:42:51;;;;;;;3.28;1.15;;;13.80;77.10;;;;;;4974026;28;20163;-83
2023/03/22 08:45:17;;;;;;;6.22;1.20;;;13.80;76.60;;;;;;4970671;28;20023;-83
2023/03/22 08:47:44;;;;;;;6.20;0.90;;;13.80;76.80;;;;;;4977215;28;20030;-83
2023/03/22 08:50:10;;;;;;;6.28;1.33;;;13.80;76.80;;;;;;4972660;28;20078;-82
2023/03/22 08:52:36;;;;;;;6.97;1.20;;;13.90;76.70;;;;;;4977070;28;20035;-82
2023/03/22 08:55:03;;;;;;;5.30;1.55;;;13.90;76.20;;;;;;4992062;28;20054;-83
2023/03/22 08:57:29;;;;;;;6.97;1.30;;;13.90;76.00;;;;;;4965154;28;20037;-83
2023/03/22 08:59:56;;;;;;;4.68;1.25;;;13.90;76.00;;;;;;4970961;28;20985;-83
2023/03/22 09:02:23;;;;;;;2.85;1.20;;;13.90;75.70;;;;;;4973850;28;20030;-83
2023/03/22 09:04:49;;;;;;;7.75;1.33;;;13.80;75.50;;;;;;4968328;28;20023;-82
2023/03/22 09:07:16;;;;;;;9.88;2.17;;;13.90;75.80;;;;;;4976994;28;20029;-83
2023/03/22 09:09:42;;;;;;;2.88;1.10;;;14.00;75.70;;;;;;4969921;28;20030;-83
2023/03/22 09:12:08;;;;;;;12.82;1.55;;;14.00;75.30;;;;;;4976827;28;20038;-83
2023/03/22 09:14:34;;;;;;;10.32;1.75;;;14.10;75.10;;;;;;4976944;28;20023;-83
2023/03/22 09:17:00;;;;;;;7.57;1.50;;;14.20;75.20;;;;;;4991528;28;20034;-83
2023/03/22 09:19:26;;;;;;;8.75;1.50;;;14.20;75.10;;;;;;4971798;28;20027;-82
2023/03/22 09:21:51;;;;;;;6.20;1.83;;;14.20;75.00;;;;;;4972095;28;20113;-83
2023/03/22 09:24:18;;;;;;;6.07;1.30;;;14.30;74.60;;;;;;4968096;28;20050;-82
2023/03/22 09:26:44;;;;;;;3.25;1.27;;;14.30;74.30;;;;;;4976701;28;20409;-83
2023/03/22 09:29:09;;;;;;;6.35;1.60;;;14.40;74.30;;;;;;4966974;28;20077;-83
2023/03/22 09:31:35;;;;;;;5.72;2.08;;;14.40;74.20;;;;;;4976192;28;20133;-83
2023/03/22 09:34:01;;;;;;;8.10;1.63;;;14.50;74.20;;;;;;4972262;28;20034;-83
2023/03/22 09:36:26;;;;;;;5.70;1.50;;;14.50;73.90;;;;;;4974220;28;20038;-83
2023/03/22 09:38:52;;;;;;;5.40;1.02;;;14.50;73.90;;;;;;4959032;28;20033;-83
2023/03/22 09:41:26;;;;;;;6.85;1.65;;;14.30;73.80;;;;;;4930922;28;20027;-84
2023/03/22 09:43:58;;;;;;;5.30;1.30;;;14.30;74.10;;;;;;4976679;28;20416;-83
2023/03/22 09:46:35;;;;;;;7.13;1.42;;;14.30;74.50;;;;;;4949516;28;20027;-84
2023/03/22 09:49:06;;;;;;;11.95;1.83;;;14.20;74.60;;;;;;4970132;28;20027;-83
2023/03/22 09:51:38;;;;;;;5.88;1.60;;;14.20;74.90;;;;;;4964872;28;20019;-83
2023/03/22 09:54:14;;;;;;;8.38;1.33;;;14.20;75.30;;;;;;4974830;28;20035;-83
2023/03/22 09:56:40;;;;;;;8.05;1.67;;;14.30;75.90;;;;;;4967937;28;20050;-84
2023/03/22 09:59:31;;;;;;;6.00;1.30;;;14.20;76.50;;;;;;4966333;28;20474;-83
2023/03/22 10:02:03;;;;;;;8.10;1.48;;;14.20;77.00;;;;;;4975593;28;20046;-84
2023/03/22 10:04:41;;;;;;;6.75;1.17;;;14.20;77.60;;;;;;4966668;28;20035;-83
2023/03/22 10:07:18;;;;;;;7.07;1.42;;;14.20;78.10;;;;;;4986803;28;20058;-83
2023/03/22 10:10:02;;;;;;;5.20;1.63;;;14.10;78.80;;;;;;4971810;28;20039;-83
2023/03/22 10:12:36;;;;;;;8.90;1.58;;;14.10;79.30;;;;;;4956527;28;20034;-83
2023/03/22 10:15:28;;;;;;;9.75;1.50;;;14.10;79.50;;;;;;4968304;28;20072;-83
2023/03/22 10:17:56;;;;;;;5.78;1.38;;;13.90;80.20;;;;;;4974677;28;20042;-82
2023/03/22 10:20:45;;;;;;;14.93;1.90;;;13.80;81.30;;;;;;4979956;28;20058;-82
2023/03/22 10:23:16;;;;;;;8.10;1.75;;;13.80;81.40;;;;;;4979911;28;20027;-82
2023/03/22 10:25:43;;;;;;;5.38;1.13;;;13.70;82.10;;;;;;4979962;28;20379;-82
2023/03/22 10:28:25;;;;;;;4.43;1.70;;;13.70;82.20;;;;;;4977188;28;20027;-82
2023/03/22 10:30:57;;;;;;;4.43;1.10;;;13.80;82.40;;;;;;4971547;28;20532;-83
2023/03/22 10:33:49;;;;;;;4.32;1.27;;;13.70;82.50;;;;;;4979733;28;20033;-82
2023/03/22 10:36:18;;;;;;;5.68;1.50;;;13.70;82.70;;;;;;4947090;28;20050;-82
2023/03/22 10:38:56;;;;;;;5.10;1.50;;;13.60;83.00;;;;;;4971264;28;20047;-82
2023/03/22 10:41:24;;;;;;;5.25;1.60;;;13.70;83.20;;;;;;4978646;28;20051;-82
2023/03/22 10:44:01;;;;;;;3.95;1.45;;;13.70;83.30;;;;;;4979620;28;20027;-82
2023/03/22 10:46:34;;;;;;;5.70;1.92;;;13.80;83.20;;;;;;4967153;28;20031;-82
2023/03/22 10:49:01;;;;;;;6.57;1.23;;;13.70;83.50;;;;;;4982760;28;20022;-83
2023/03/22 10:51:33;;;;;;;3.28;1.10;;;13.80;83.50;;;;;;4966652;28;20497;-82
2023/03/22 10:54:00;;;;;;;6.90;1.80;;;13.70;83.70;;;;;;4979425;28;20106;-82
2023/03/22 10:56:26;;;;;;;7.85;1.20;;;13.80;83.70;;;;;;4982765;28;20038;-82
2023/03/22 10:58:54;;;;;;;2.35;1.00;;;13.80;83.70;;;;;;4973857;28;20023;-82
2023/03/22 11:01:30;;;;;;;5.00;1.50;;;13.80;83.80;;;;;;4979240;28;20082;-82
2023/03/22 11:04:14;;;;;;;2.00;1.00;;;13.90;83.70;;;;;;4982963;28;20122;-82
2023/03/22 11:06:50;;;;;;;2.33;0.88;;;13.80;83.70;;;;;;4976977;28;20478;-82
2023/03/22 11:09:18;;;;;;;3.25;0.98;;;13.80;83.90;;;;;;4958640;28;20027;-82
2023/03/22 11:11:53;;;;;;;4.00;1.50;;;13.80;83.80;;;;;;4977533;28;20456;-82
2023/03/22 11:14:40;;;;;;;3.40;1.33;;;13.80;83.80;;;;;;4955778;28;20183;-82
2023/03/22 11:17:09;;;;;;;3.45;1.20;;;13.80;83.90;;;;;;4968164;28;20154;-82
2023/03/22 11:19:41;;;;;;;2.40;1.00;;;13.90;83.70;;;;;;4969960;28;20049;-82
2023/03/22 11:22:30;;;;;;;2.80;0.70;;;13.80;83.80;;;;;;4973661;28;20035;-82
2023/03/22 11:24:57;;;;;;;2.03;0.93;;;13.90;83.80;;;;;;4974494;28;20026;-82
2023/03/22 11:27:27;;;;;;;3.97;1.20;;;13.80;83.70;;;;;;4977894;28;20035;-82
2023/03/22 11:30:16;;;;;;;4.07;1.75;;;13.80;83.80;;;;;;4978658;28;20030;-83
2023/03/22 11:32:41;;;;;;;3.97;1.70;;;13.90;83.70;;;;;;4969982;28;20038;-80
2023/03/22 11:35:19;;;;;;;4.53;1.58;;;13.90;83.50;;;;;;4971795;28;20454;-80
2023/03/22 11:37:49;;;;;;;2.45;1.38;;;13.80;83.60;;;;;;4957416;28;20391;-81
2023/03/22 11:40:20;;;;;;;3.40;1.35;;;13.80;83.60;;;;;;4963542;28;20077;-79
2023/03/22 11:42:50;;;;;;;4.75;1.70;;;13.90;83.80;;;;;;4977066;28;20465;-78
2023/03/22 11:45:28;;;;;;;6.45;1.60;;;13.80;83.80;;;;;;4961169;28;20030;-78
2023/03/22 11:48:00;;;;;;;2.83;1.48;;;13.80;84.00;;;;;;4965894;28;20077;-78
2023/03/22 11:50:29;;;;;;;4.10;1.50;;;13.90;84.00;;;;;;4978273;28;20535;-78
2023/03/22 11:52:55;;;;;;;7.20;2.03;;;13.90;83.90;;;;;;4978175;28;20028;-78
2023/03/22 11:55:23;;;;;;;10.77;2.28;;;13.90;84.00;;;;;;4958802;28;20031;-81
2023/03/22 11:57:49;;;;;;;4.65;1.90;;;13.90;84.00;;;;;;4960842;28;20478;-81
2023/03/22 12:00:23;;;;;;;4.70;1.38;;;13.90;84.20;;;;;;4975688;28;20043;-80
2023/03/22 12:03:03;;;;;;;3.55;1.50;;;13.90;84.30;;;;;;4978287;28;20026;-80
2023/03/22 12:05:36;;;;;;;4.50;1.63;;;13.90;84.60;;;;;;4963500;28;20031;-80
2023/03/22 12:08:29;;;;;;;3.85;1.92;;;13.80;84.50;;;;;;4975715;28;20518;-80
2023/03/22 12:11:05;;;;;;;7.10;1.95;;;13.80;84.50;;;;;;4969270;28;20165;-80
2023/03/22 12:13:35;;;;;;;4.03;1.90;;;13.80;84.50;;;;;;4973205;28;20014;-79
2023/03/22 12:16:06;;;;;;;4.80;1.80;;;13.80;84.40;;;;;;4976590;28;20401;-80
2023/03/22 12:18:40;;;;;;;4.45;1.60;;;13.90;84.30;;;;;;4971531;28;20038;-80
2023/03/22 12:21:09;;;;;;;3.78;1.45;;;13.90;84.40;;;;;;4975230;28;20027;-81
2023/03/22 12:23:34;;;;;;;7.45;2.05;;;13.90;84.40;;;;;;4973461;28;20062;-80
2023/03/22 12:26:20;;;;;;;7.57;2.00;;;13.90;84.40;;;;;;4960711;28;20046;-80
2023/03/22 12:29:03;;;;;;;3.70;1.60;;;13.90;84.40;;;;;;4962363;28;20030;-80
2023/03/22 12:31:43;;;;;;;6.32;2.20;;;13.80;84.40;;;;;;4974064;28;20461;-80
2023/03/22 12:34:24;;;;;;;7.38;1.85;;;13.90;84.60;;;;;;4976580;28;20080;-81
2023/03/22 12:36:54;;;;;;;5.88;1.70;;;13.80;84.60;;;;;;4949474;28;20047;-80
2023/03/22 12:39:49;;;;;;;5.72;1.85;;;13.90;84.60;;;;;;4974098;28;20026;-80
2023/03/22 12:42:32;;;;;;;3.85;1.73;;;13.80;84.70;;;;;;4968593;28;20027;-80
2023/03/22 12:45:05;;;;;;;7.40;2.05;;;13.80;84.60;;;;;;4965506;28;20035;-81
2023/03/22 12:48:15;;;;;;;8.32;1.65;;;13.80;84.60;;;;;;4974767;28;20041;-81
2023/03/22 12:51:03;;;;;;;5.93;1.70;;;13.80;84.30;;;;;;4922138;28;20095;-80
2023/03/22 12:53:41;;;;;;;6.88;1.90;;;13.80;84.20;;;;;;4977892;28;20054;-81
2023/03/22 12:56:10;;;;;;;9.48;2.58;;;13.80;84.30;;;;;;4972658;28;20061;-81
2023/03/22 12:58:35;;;;;;;7.85;1.70;;;13.80;84.40;;;;;;4975740;28;20023;-80
2023/03/22 13:01:16;;;;;;;4.47;1.13;;;13.90;84.40;;;;;;4971140;28;20414;-81
2023/03/22 13:03:50;;;;;;;4.43;1.60;;;14.00;84.10;;;;;;4973885;28;20093;-81
2023/03/22 13:06:30;;;;;;;5.93;1.80;;;14.00;84.00;;;;;;4975915;28;20023;-81
2023/03/22 13:09:16;;;;;;;9.48;1.70;;;14.00;83.90;;;;;;4975297;28;20031;-81
2023/03/22 13:11:44;;;;;;;8.30;2.53;;;14.10;83.80;;;;;;4959003;28;20056;-80
2023/03/22 13:14:48;;;;;;;8.10;2.03;;;14.10;83.90;;;;;;4972764;28;20788;-81
2023/03/22 13:17:39;;;;;;;5.22;1.42;;;14.10;83.90;;;;;;4959386;28;20049;-80
2023/03/22 13:20:09;;;;;;;6.93;1.67;;;14.00;84.30;;;;;;4966671;28;20506;-81
2023/03/22 13:22:35;;;;;;;3.55;1.25;;;14.20;84.30;;;;;;4960738;28;20026;-81
2023/03/22 13:25:11;;;;;;;9.10;1.52;;;14.10;84.10;;;;;;4961874;28;20142;-80
2023/03/22 13:27:58;;;;;;;3.00;1.13;;;14.10;84.20;;;;;;4959379;28;20038;-82
2023/03/22 13:30:28;;;;;;;4.88;1.65;;;14.20;84.30;;;;;;4971771;28;20027;-83
2023/03/22 13:33:09;;;;;;;8.25;1.60;;;14.10;84.20;;;;;;4974694;28;20031;-80
2023/03/22 13:35:37;;;;;;;4.55;1.10;;;14.10;84.40;;;;;;4959186;28;20516;-80
2023/03/22 13:38:09;;;;;;;5.40;1.45;;;14.10;84.60;;;;;;4973781;28;20105;-80
2023/03/22 13:40:42;;;;;;;2.50;1.33;;;14.10;84.60;;;;;;4978908;28;20019;-80
2023/03/22 13:43:21;;;;;;;3.28;1.00;;;14.00;84.70;;;;;;4978143;28;20030;-80
2023/03/22 13:46:03;;;;;;;4.10;1.40;;;14.10;84.80;;;;;;4978749;28;20030;-80
2023/03/22 13:48:41;;;;;;;3.88;1.20;;;14.10;84.80;;;;;;4980394;28;20034;-80
2023/03/22 13:51:30;;;;;;;6.70;1.27;;;14.10;84.80;;;;;;4979204;28;20019;-80
2023/03/22 13:54:08;;;;;;;1.97;1.07;;;14.00;84.80;;;;;;4975717;28;20034;-80
2023/03/22 13:56:43;;;;;;;1.65;0.98;;;14.00;85.00;;;;;;4979991;28;20704;-80
2023/03/22 13:59:19;;;;;;;3.17;1.20;;;14.00;85.00;;;;;;4975214;28;20058;-80
2023/03/22 14:01:48;;;;;;;4.55;1.30;;;14.00;84.70;;;;;;4978037;28;20022;-80
2023/03/22 14:04:21;;;;;;;1.10;0.80;;;14.10;85.00;;;;;;4979369;28;20054;-80
2023/03/22 14:06:58;;;;;;;4.60;1.50;;;14.10;84.70;;;;;;4978279;28;20081;-80
2023/03/22 14:09:34;;;;;;;1.52;1.10;;;14.10;85.00;;;;;;4978462;28;20014;-81
2023/03/22 14:12:20;;;;;;;1.02;0.68;;;14.10;85.20;;;;;;4974653;28;20043;-80
2023/03/22 14:14:50;;;;;;;1.15;0.70;;;14.10;85.10;;;;;;4974273;28;20030;-80
2023/03/22 14:17:23;;;;;;;2.00;1.20;;;14.10;84.80;;;;;;4978511;28;20035;-80
2023/03/22 14:19:51;;;;;;;1.58;1.00;;;14.00;85.00;;;;;;4977232;28;20461;-80
2023/03/22 14:22:32;;;;;;;5.40;1.58;;;14.00;85.00;;;;;;4979604;28;20026;-81
2023/03/22 14:24:59;;;;;;;4.40;1.08;;;13.90;85.30;;;;;;4968894;28;20035;-80
2023/03/22 14:27:25;;;;;;;3.58;1.10;;;13.90;85.30;;;;;;4978530;28;20453;-80
2023/03/22 14:29:51;;;;;;;3.28;1.00;;;13.90;85.40;;;;;;4979119;28;20023;-81
2023/03/22 14:32:28;;;;;;;2.80;1.20;;;13.90;85.60;;;;;;4977467;28;20599;-81
2023/03/22 14:34:59;;;;;;;3.17;1.40;;;13.90;85.30;;;;;;4977973;28;20026;-81
2023/03/22 14:37:26;;;;;;;1.70;0.98;;;14.00;85.10;;;;;;4977118;28;20435;-85
2023/03/22 14:39:52;;;;;;;4.00;1.02;;;13.90;85.10;;;;;;4979038;28;20050;-85
2023/03/22 14:42:21;;;;;;;1.40;1.10;;;13.90;85.10;;;;;;4977641;28;20031;-80
2023/03/22 14:44:54;;;;;;;2.25;1.05;;;14.00;85.30;;;;;;4965816;28;20023;-80
2023/03/22 14:47:33;;;;;;;1.58;1.08;;;13.90;85.50;;;;;;4961672;28;20461;-85
2023/03/22 14:50:04;;;;;;;2.47;1.10;;;14.00;85.50;;;;;;4950024;28;20035;-80
2023/03/22 14:52:32;;;;;;;3.75;1.30;;;14.00;85.40;;;;;;4974814;28;20031;-80
2023/03/22 14:55:02;;;;;;;1.70;1.08;;;13.90;85.50;;;;;;4977124;28;20034;-81
2023/03/22 14:57:31;;;;;;;2.88;0.93;;;13.80;85.60;;;;;;4974275;28;20085;-80
2023/03/22 14:59:58;;;;;;;2.50;1.08;;;13.80;85.80;;;;;;4977321;28;20023;-80
2023/03/22 15:03:01;;;;;;;3.75;1.83;;;13.80;85.80;;;;;;4974434;28;20033;-80
2023/03/22 15:05:32;;;;;;;2.58;1.42;;;13.80;85.80;;;;;;4974515;28;20031;-80
2023/03/22 15:08:19;;;;;;;7.72;1.67;;;13.80;85.70;;;;;;4973331;28;20045;-81
2023/03/22 15:10:51;;;;;;;2.75;1.15;;;13.80;85.90;;;;;;4974449;28;20023;-81
2023/03/22 15:13:18;;;;;;;5.10;1.35;;;13.70;85.80;;;;;;4954352;28;20457;-80
2023/03/22 15:15:44;;;;;;;2.90;1.58;;;13.70;85.70;;;;;;4973767;28;20038;-79
2023/03/22 15:18:17;;;;;;;3.03;1.27;;;13.70;85.60;;;;;;4978304;28;20034;-80
2023/03/22 15:20:45;;;;;;;2.47;1.10;;;13.70;85.60;;;;;;4976438;28;20036;-80
2023/03/22 15:23:29;;;;;;;3.25;1.38;;;13.80;85.40;;;;;;4975959;28;20027;-80
2023/03/22 15:25:59;;;;;;;3.53;0.93;;;13.70;85.50;;;;;;4970599;28;20015;-80
2023/03/22 15:28:28;;;;;;;1.83;0.90;;;13.80;85.50;;;;;;4967132;28;20034;-80
2023/03/22 15:31:00;;;;;;;2.38;0.98;;;13.80;85.40;;;;;;4977780;28;20094;-80
2023/03/22 15:33:33;;;;;;;2.35;1.20;;;13.80;85.20;;;;;;4972273;28;20062;-80
2023/03/22 15:36:00;;;;;;;1.40;1.05;;;13.80;85.30;;;;;;4975031;28;20061;-81
2023/03/22 15:38:36;;;;;;;1.73;0.98;;;13.80;85.60;;;;;;4978227;28;20077;-80
2023/03/22 15:41:26;;;;;;;3.38;1.58;;;13.80;85.50;;;;;;4974395;28;20058;-80
2023/03/22 15:44:18;;;;;;;3.53;1.20;;;13.80;85.40;;;;;;4977953;28;20106;-80
2023/03/22 15:46:56;;;;;;;2.92;0.90;;;13.80;85.40;;;;;;4966475;28;20039;-80
2023/03/22 15:49:47;;;;;;;4.47;1.33;;;13.90;85.10;;;;;;4977655;28;20031;-80
2023/03/22 15:52:21;;;;;;;2.40;1.35;;;13.90;85.20;;;;;;4971858;28;20062;-80
2023/03/22 15:54:55;;;;;;;5.10;1.35;;;13.90;85.20;;;;;;4968293;28;20035;-80
2023/03/22 15:57:39;;;;;;;1.83;1.20;;;14.00;85.20;;;;;;4977476;28;20475;-80
2023/03/22 16:00:11;;;;;;;1.40;1.08;;;14.00;85.20;;;;;;4963868;28;20461;-80
2023/03/22 16:02:58;;;;;;;1.65;1.30;;;14.00;85.10;;;;;;4971273;28;20074;-80
2023/03/22 16:05:26;;;;;;;2.80;1.42;;;13.90;85.30;;;;;;4956552;28;20081;-81
2023/03/22 16:07:53;;;;;;;4.90;1.58;;;13.90;85.30;;;;;;4974117;28;20089;-80
2023/03/22 16:10:20;;;;;;;4.25;1.67;;;13.90;85.50;;;;;;4958859;28;20023;-80
2023/03/22 16:12:47;;;;;;;4.47;1.60;;;14.00;85.40;;;;;;4957636;28;20121;-80
2023/03/22 16:15:18;;;;;;;1.83;1.10;;;14.00;85.40;;;;;;4972925;28;20038;-80
2023/03/22 16:17:44;;;;;;;4.78;1.52;;;13.90;85.20;;;;;;4974907;28;20023;-80
2023/03/22 16:20:11;;;;;;;3.92;1.80;;;13.90;85.30;;;;;;4975192;28;20580;-80
2023/03/22 16:22:38;;;;;;;2.95;1.20;;;13.90;85.40;;;;;;4972327;28;20084;-80
2023/03/22 16:25:05;;;;;;;3.25;1.52;;;13.80;85.40;;;;;;4971968;28;20022;-80
2023/03/22 16:27:31;;;;;;;5.60;1.77;;;13.90;85.40;;;;;;4958722;28;20045;-80
2023/03/22 16:29:57;;;;;;;2.83;1.67;;;13.90;85.50;;;;;;4976207;28;20022;-80
2023/03/22 16:32:25;;;;;;;3.78;1.98;;;13.90;85.50;;;;;;4967169;28;20050;-79
2023/03/22 16:34:51;;;;;;;3.85;1.50;;;13.90;85.50;;;;;;4966337;28;20034;-88
2023/03/22 16:37:19;;;;;;;8.05;2.05;;;13.90;85.60;;;;;;4959630;28;20043;-87
2023/03/22 16:39:45;;;;;;;5.05;1.83;;;13.90;85.60;;;;;;4976314;28;20037;-82
2023/03/22 16:42:22;;;;;;;6.57;2.78;;;13.90;85.60;;;;;;4983348;28;20503;-82
2023/03/22 16:44:50;;;;;;;3.50;1.27;;;13.80;85.60;;;;;;4964896;28;20379;-79
2023/03/22 16:47:25;;;;;;;4.07;1.73;;;13.80;85.60;;;;;;4975108;28;20026;-79
2023/03/22 16:49:52;;;;;;;9.40;2.47;;;13.80;85.80;;;;;;4966300;28;20026;-84
2023/03/22 16:52:21;;;;;;;4.20;1.90;;;13.80;85.80;;;;;;4966122;28;20031;-85
2023/03/22 16:54:49;;;;;;;4.45;1.58;;;13.80;85.80;;;;;;4977193;28;20046;-83
2023/03/22 16:57:18;;;;;;;6.75;2.15;;;13.80;85.80;;;;;;4975905;28;20035;-85
2023/03/22 16:59:44;;;;;;;2.67;1.33;;;13.80;85.70;;;;;;4974949;28;20042;-81
2023/03/22 17:02:30;;;;;;;7.88;1.95;;;13.80;85.60;;;;;;4963952;28;20089;-83
2023/03/22 17:04:56;;;;;;;3.72;1.50;;;13.80;85.80;;;;;;4955537;28;20054;-82
2023/03/22 17:07:24;;;;;;;4.18;1.67;;;13.90;85.70;;;;;;4977015;28;20050;-86
2023/03/22 17:09:51;;;;;;;3.42;1.40;;;13.90;85.50;;;;;;4976345;28;20062;-78
2023/03/22 17:12:20;;;;;;;4.65;1.60;;;13.80;85.50;;;;;;4974170;28;20041;-85
2023/03/22 17:14:47;;;;;;;5.10;1.57;;;13.80;85.50;;;;;;4968350;28;20130;-83
2023/03/22 17:17:15;;;;;;;3.50;1.02;;;13.80;85.60;;;;;;4975467;28;20278;-84
2023/03/22 17:19:41;;;;;;;6.45;1.85;;;13.80;85.90;;;;;;4953205;28;20106;-84
2023/03/22 17:22:07;;;;;;;3.20;1.35;;;13.80;85.80;;;;;;4974264;28;20027;-86
2023/03/22 17:24:35;;;;;;;3.58;1.23;;;13.80;85.80;;;;;;4974084;28;20089;-79
2023/03/22 17:27:02;;;;;;;4.03;1.50;;;13.70;85.80;;;;;;4987677;28;20076;-81
2023/03/22 17:29:28;;;;;;;4.90;1.70;;;13.70;86.00;;;;;;4966483;28;20055;-79
2023/03/22 17:31:53;;;;;;;6.72;1.92;;;13.70;86.00;;;;;;4976069;28;20119;-85
2023/03/22 17:34:20;;;;;;;5.13;1.67;;;13.70;85.90;;;;;;4965977;28;20039;-85
2023/03/22 17:36:46;;;;;;;4.28;2.45;;;13.80;85.80;;;;;;4967489;28;20067;-82
2023/03/22 17:39:12;;;;;;;3.78;1.75;;;13.80;86.00;;;;;;4975188;28;20059;-83
2023/03/22 17:41:37;;;;;;;5.05;2.10;;;13.80;86.00;;;;;;4991338;28;20027;-82
2023/03/22 17:44:03;;;;;;;7.68;2.40;;;13.80;86.00;;;;;;4987232;28;20367;-83
2023/03/22 17:46:35;;;;;;;5.53;2.05;;;13.70;86.20;;;;;;4972315;28;20089;-84
2023/03/22 17:49:00;;;;;;;5.32;2.30;;;13.70;86.10;;;;;;4975988;28;20030;-79
2023/03/22 17:51:26;;;;;;;7.18;1.73;;;13.70;86.30;;;;;;4971454;28;20024;-82
2023/03/22 17:53:53;;;;;;;8.10;2.03;;;13.70;86.40;;;;;;4972007;28;20042;-79
2023/03/22 17:56:19;;;;;;;9.43;2.00;;;13.70;86.40;;;;;;4975437;28;20035;-78
2023/03/22 17:58:45;;;;;;;4.97;2.10;;;13.70;86.40;;;;;;4975101;28;20078;-82
2023/03/22 18:01:12;;;;;;;6.63;2.10;;;13.70;86.50;;;;;;4969801;28;20023;-79
2023/03/22 18:03:40;;;;;;;8.43;2.53;;;13.70;86.70;;;;;;4978958;28;20095;-82
2023/03/22 18:06:06;;;;;;;3.47;2.20;;;13.70;86.70;;;;;;4978379;28;20027;-78
2023/03/22 18:08:37;;;;;;;8.15;2.40;;;13.70;86.50;;;;;;4972898;28;20049;-89
2023/03/22 18:11:03;;;;;;;4.03;2.00;;;13.70;86.40;;;;;;4976055;28;20023;-84
2023/03/22 18:13:41;;;;;;;4.75;2.05;;;13.70;86.40;;;;;;4963440;28;20086;-82
2023/03/22 18:16:08;;;;;;;7.63;1.95;;;13.70;86.30;;;;;;4975361;28;20027;-81
2023/03/22 18:18:36;;;;;;;8.50;2.42;;;13.70;86.20;;;;;;4976057;28;20023;-83
2023/03/22 18:21:08;;;;;;;2.58;1.92;;;13.70;85.90;;;;;;4976335;28;20035;-79
2023/03/22 18:23:40;;;;;;;6.30;1.90;;;13.70;85.90;;;;;;4969555;28;20023;-87
2023/03/22 18:26:11;;;;;;;4.35;2.15;;;13.70;85.80;;;;;;4984077;28;20129;-78
2023/03/22 18:28:38;;;;;;;7.38;1.85;;;13.70;85.80;;;;;;4979355;28;20038;-79
2023/03/22 18:31:04;;;;;;;6.00;1.98;;;13.70;85.90;;;;;;4978189;28;20588;-78
2023/03/22 18:33:30;;;;;;;6.60;2.15;;;13.70;85.90;;;;;;4975818;28;20077;-79